sensor_id;sensor_type;location;lat;lon;timestamp;P1;durP1;ratioP1;P2;durP2;ratioP2
68993;SDS011;56054;50.968;5.816;2023-09-19T00:01:25;5.97;;;1.38;;
68993;SDS011;56054;50.968;5.816;2023-09-19T00:04:33;13.95;;;2.17;;
68993;SDS011;56054;50.968;5.816;2023-09-19T00:07:40;9.80;;;1.50;;
68993;SDS011;56054;50.968;5.816;2023-09-19T00:10:47;14.23;;;1.38;;
68993;SDS011;56054;50.968;5.816;2023-09-19T00:13:54;9.50;;;1.52;;
68993;SDS011;56054;50.968;5.816;2023-09-19T00:17:01;8.02;;;1.88;;
68993;SDS011;56054;50.968;5.816;2023-09-19T00:20:09;12.57;;;2.28;;
68993;SDS011;56054;50.968;5.816;2023-09-19T00:23:16;8.80;;;1.55;;
68993;SDS011;56054;50.968;5.816;2023-09-19T00:26:23;14.85;;;1.75;;
68993;SDS011;56054;50.968;5.816;2023-09-19T00:29:30;15.65;;;1.73;;
68993;SDS011;56054;50.968;5.816;2023-09-19T00:32:37;8.07;;;1.77;;
68993;SDS011;56054;50.968;5.816;2023-09-19T00:35:51;12.48;;;1.48;;
68993;SDS011;56054;50.968;5.816;2023-09-19T00:38:59;8.20;;;1.40;;
68993;SDS011;56054;50.968;5.816;2023-09-19T00:42:06;10.32;;;1.90;;
68993;SDS011;56054;50.968;5.816;2023-09-19T00:45:13;7.55;;;1.50;;
68993;SDS011;56054;50.968;5.816;2023-09-19T00:48:24;8.45;;;1.48;;
68993;SDS011;56054;50.968;5.816;2023-09-19T00:51:32;8.38;;;1.60;;
68993;SDS011;56054;50.968;5.816;2023-09-19T00:54:39;8.32;;;1.88;;
68993;SDS011;56054;50.968;5.816;2023-09-19T00:57:46;7.88;;;1.65;;
68993;SDS011;56054;50.968;5.816;2023-09-19T01:00:53;9.57;;;1.70;;
68993;SDS011;56054;50.968;5.816;2023-09-19T01:04:00;13.63;;;1.95;;
68993;SDS011;56054;50.968;5.816;2023-09-19T01:07:07;14.02;;;1.88;;
68993;SDS011;56054;50.968;5.816;2023-09-19T01:10:14;7.68;;;1.23;;
68993;SDS011;56054;50.968;5.816;2023-09-19T01:13:28;11.38;;;1.75;;
68993;SDS011;56054;50.968;5.816;2023-09-19T01:16:53;13.68;;;1.85;;
68993;SDS011;56054;50.968;5.816;2023-09-19T01:20:27;8.30;;;1.45;;
68993;SDS011;56054;50.968;5.816;2023-09-19T01:24:10;10.70;;;1.67;;
68993;SDS011;56054;50.968;5.816;2023-09-19T01:31:03;4.65;;;1.42;;
68993;SDS011;56054;50.968;5.816;2023-09-19T01:34:15;11.70;;;1.33;;
68993;SDS011;56054;50.968;5.816;2023-09-19T01:37:22;10.27;;;1.38;;
68993;SDS011;56054;50.968;5.816;2023-09-19T01:40:29;7.63;;;1.67;;
68993;SDS011;56054;50.968;5.816;2023-09-19T01:43:43;10.20;;;2.28;;
68993;SDS011;56054;50.968;5.816;2023-09-19T01:46:52;18.77;;;2.33;;
68993;SDS011;56054;50.968;5.816;2023-09-19T01:53:55;10.63;;;1.40;;
68993;SDS011;56054;50.968;5.816;2023-09-19T01:57:51;10.05;;;1.30;;
68993;SDS011;56054;50.968;5.816;2023-09-19T02:00:41;7.57;;;1.92;;
68993;SDS011;56054;50.968;5.816;2023-09-19T02:03:50;10.35;;;1.65;;
68993;SDS011;56054;50.968;5.816;2023-09-19T02:06:57;11.93;;;1.98;;
68993;SDS011;56054;50.968;5.816;2023-09-19T02:10:05;9.93;;;1.80;;
68993;SDS011;56054;50.968;5.816;2023-09-19T02:17:24;10.75;;;1.92;;
68993;SDS011;56054;50.968;5.816;2023-09-19T02:20:31;8.65;;;1.65;;
68993;SDS011;56054;50.968;5.816;2023-09-19T02:23:38;7.30;;;1.90;;
68993;SDS011;56054;50.968;5.816;2023-09-19T02:26:47;13.38;;;1.85;;
68993;SDS011;56054;50.968;5.816;2023-09-19T02:29:54;8.98;;;1.20;;
68993;SDS011;56054;50.968;5.816;2023-09-19T02:33:01;13.43;;;3.45;;
68993;SDS011;56054;50.968;5.816;2023-09-19T02:36:08;14.20;;;2.20;;
68993;SDS011;56054;50.968;5.816;2023-09-19T02:39:15;7.20;;;1.50;;
68993;SDS011;56054;50.968;5.816;2023-09-19T02:42:22;7.38;;;1.45;;
68993;SDS011;56054;50.968;5.816;2023-09-19T02:45:29;9.80;;;2.03;;
68993;SDS011;56054;50.968;5.816;2023-09-19T02:48:36;12.75;;;2.25;;
68993;SDS011;56054;50.968;5.816;2023-09-19T02:51:46;13.32;;;1.95;;
68993;SDS011;56054;50.968;5.816;2023-09-19T02:54:53;8.80;;;1.58;;
68993;SDS011;56054;50.968;5.816;2023-09-19T02:58:00;10.23;;;2.20;;
68993;SDS011;56054;50.968;5.816;2023-09-19T03:01:09;11.38;;;1.73;;
68993;SDS011;56054;50.968;5.816;2023-09-19T03:04:19;11.93;;;2.20;;
68993;SDS011;56054;50.968;5.816;2023-09-19T03:07:26;10.15;;;1.83;;
68993;SDS011;56054;50.968;5.816;2023-09-19T03:10:33;10.07;;;1.50;;
68993;SDS011;56054;50.968;5.816;2023-09-19T03:13:40;13.07;;;1.92;;
68993;SDS011;56054;50.968;5.816;2023-09-19T03:16:47;16.77;;;1.65;;
68993;SDS011;56054;50.968;5.816;2023-09-19T03:19:54;10.00;;;1.73;;
68993;SDS011;56054;50.968;5.816;2023-09-19T03:23:08;13.23;;;1.92;;
68993;SDS011;56054;50.968;5.816;2023-09-19T03:26:15;12.43;;;2.22;;
68993;SDS011;56054;50.968;5.816;2023-09-19T03:29:22;10.18;;;2.22;;
68993;SDS011;56054;50.968;5.816;2023-09-19T03:32:29;7.82;;;1.60;;
68993;SDS011;56054;50.968;5.816;2023-09-19T03:35:36;10.13;;;2.17;;
68993;SDS011;56054;50.968;5.816;2023-09-19T03:38:43;13.35;;;2.10;;
68993;SDS011;56054;50.968;5.816;2023-09-19T03:41:50;14.43;;;2.08;;
68993;SDS011;56054;50.968;5.816;2023-09-19T03:45:31;8.88;;;1.58;;
68993;SDS011;56054;50.968;5.816;2023-09-19T03:48:41;10.45;;;1.88;;
68993;SDS011;56054;50.968;5.816;2023-09-19T03:51:48;15.68;;;2.13;;
68993;SDS011;56054;50.968;5.816;2023-09-19T03:54:55;9.85;;;2.05;;
68993;SDS011;56054;50.968;5.816;2023-09-19T03:58:03;10.48;;;1.65;;
68993;SDS011;56054;50.968;5.816;2023-09-19T04:01:10;13.07;;;1.80;;
68993;SDS011;56054;50.968;5.816;2023-09-19T04:04:17;14.50;;;2.38;;
68993;SDS011;56054;50.968;5.816;2023-09-19T04:07:24;13.30;;;1.95;;
68993;SDS011;56054;50.968;5.816;2023-09-19T04:10:31;12.50;;;2.03;;
68993;SDS011;56054;50.968;5.816;2023-09-19T04:13:38;10.80;;;2.30;;
68993;SDS011;56054;50.968;5.816;2023-09-19T04:16:45;10.15;;;1.75;;
68993;SDS011;56054;50.968;5.816;2023-09-19T04:19:52;11.20;;;1.75;;
68993;SDS011;56054;50.968;5.816;2023-09-19T04:22:59;9.65;;;1.90;;
68993;SDS011;56054;50.968;5.816;2023-09-19T04:26:06;7.88;;;1.90;;
68993;SDS011;56054;50.968;5.816;2023-09-19T04:29:13;10.90;;;2.00;;
68993;SDS011;56054;50.968;5.816;2023-09-19T04:32:20;15.38;;;2.00;;
68993;SDS011;56054;50.968;5.816;2023-09-19T04:35:27;8.05;;;1.80;;
68993;SDS011;56054;50.968;5.816;2023-09-19T04:38:34;12.45;;;2.03;;
68993;SDS011;56054;50.968;5.816;2023-09-19T04:41:41;8.55;;;1.60;;
68993;SDS011;56054;50.968;5.816;2023-09-19T04:44:48;8.07;;;1.90;;
68993;SDS011;56054;50.968;5.816;2023-09-19T04:47:55;7.20;;;1.48;;
68993;SDS011;56054;50.968;5.816;2023-09-19T04:51:02;12.18;;;1.77;;
68993;SDS011;56054;50.968;5.816;2023-09-19T04:54:09;10.90;;;1.67;;
68993;SDS011;56054;50.968;5.816;2023-09-19T04:57:16;4.22;;;1.00;;
68993;SDS011;56054;50.968;5.816;2023-09-19T05:00:23;16.17;;;2.30;;
68993;SDS011;56054;50.968;5.816;2023-09-19T05:03:30;13.50;;;1.65;;
68993;SDS011;56054;50.968;5.816;2023-09-19T05:06:37;14.43;;;2.33;;
68993;SDS011;56054;50.968;5.816;2023-09-19T05:09:44;14.10;;;1.60;;
68993;SDS011;56054;50.968;5.816;2023-09-19T05:12:54;17.40;;;1.85;;
68993;SDS011;56054;50.968;5.816;2023-09-19T05:16:01;12.60;;;1.65;;
68993;SDS011;56054;50.968;5.816;2023-09-19T05:19:08;12.07;;;1.98;;
68993;SDS011;56054;50.968;5.816;2023-09-19T05:22:15;14.63;;;1.67;;
68993;SDS011;56054;50.968;5.816;2023-09-19T05:25:22;9.85;;;1.98;;
68993;SDS011;56054;50.968;5.816;2023-09-19T05:32:02;5.05;;;1.80;;
68993;SDS011;56054;50.968;5.816;2023-09-19T05:35:09;11.52;;;1.63;;
68993;SDS011;56054;50.968;5.816;2023-09-19T05:38:16;13.05;;;2.42;;
68993;SDS011;56054;50.968;5.816;2023-09-19T05:41:23;12.50;;;1.38;;
68993;SDS011;56054;50.968;5.816;2023-09-19T05:44:30;13.57;;;2.10;;
68993;SDS011;56054;50.968;5.816;2023-09-19T05:47:39;10.85;;;1.85;;
68993;SDS011;56054;50.968;5.816;2023-09-19T05:50:49;14.35;;;2.35;;
68993;SDS011;56054;50.968;5.816;2023-09-19T05:53:56;17.77;;;2.05;;
68993;SDS011;56054;50.968;5.816;2023-09-19T05:57:03;7.22;;;1.75;;
68993;SDS011;56054;50.968;5.816;2023-09-19T06:00:11;8.43;;;1.95;;
68993;SDS011;56054;50.968;5.816;2023-09-19T06:03:19;7.82;;;1.85;;
68993;SDS011;56054;50.968;5.816;2023-09-19T06:06:26;9.27;;;1.88;;
68993;SDS011;56054;50.968;5.816;2023-09-19T06:09:33;21.65;;;4.00;;
68993;SDS011;56054;50.968;5.816;2023-09-19T06:12:40;7.28;;;1.65;;
68993;SDS011;56054;50.968;5.816;2023-09-19T06:15:48;11.80;;;1.80;;
68993;SDS011;56054;50.968;5.816;2023-09-19T06:18:55;15.93;;;2.10;;
68993;SDS011;56054;50.968;5.816;2023-09-19T06:22:02;11.73;;;2.05;;
68993;SDS011;56054;50.968;5.816;2023-09-19T06:25:09;7.93;;;1.15;;
68993;SDS011;56054;50.968;5.816;2023-09-19T06:28:17;3.25;;;1.40;;
68993;SDS011;56054;50.968;5.816;2023-09-19T06:31:24;13.43;;;1.88;;
68993;SDS011;56054;50.968;5.816;2023-09-19T06:34:31;9.98;;;1.40;;
68993;SDS011;56054;50.968;5.816;2023-09-19T06:37:38;7.75;;;1.52;;
68993;SDS011;56054;50.968;5.816;2023-09-19T06:40:46;9.48;;;1.50;;
68993;SDS011;56054;50.968;5.816;2023-09-19T06:43:53;13.93;;;1.92;;
68993;SDS011;56054;50.968;5.816;2023-09-19T06:47:00;8.88;;;1.85;;
68993;SDS011;56054;50.968;5.816;2023-09-19T06:50:07;13.63;;;2.15;;
68993;SDS011;56054;50.968;5.816;2023-09-19T06:53:14;11.35;;;1.70;;
68993;SDS011;56054;50.968;5.816;2023-09-19T06:56:21;15.45;;;2.10;;
68993;SDS011;56054;50.968;5.816;2023-09-19T06:59:28;11.60;;;1.60;;
68993;SDS011;56054;50.968;5.816;2023-09-19T07:02:35;9.63;;;1.35;;
68993;SDS011;56054;50.968;5.816;2023-09-19T07:05:42;10.85;;;1.75;;
68993;SDS011;56054;50.968;5.816;2023-09-19T07:08:49;12.02;;;1.80;;
68993;SDS011;56054;50.968;5.816;2023-09-19T07:11:56;12.52;;;1.70;;
68993;SDS011;56054;50.968;5.816;2023-09-19T07:15:03;8.35;;;1.40;;
68993;SDS011;56054;50.968;5.816;2023-09-19T07:18:10;15.30;;;1.92;;
68993;SDS011;56054;50.968;5.816;2023-09-19T07:21:17;15.68;;;1.80;;
68993;SDS011;56054;50.968;5.816;2023-09-19T07:24:24;11.68;;;1.75;;
68993;SDS011;56054;50.968;5.816;2023-09-19T07:27:31;9.13;;;1.58;;
68993;SDS011;56054;50.968;5.816;2023-09-19T07:30:38;7.40;;;1.88;;
68993;SDS011;56054;50.968;5.816;2023-09-19T07:33:45;18.60;;;1.83;;
68993;SDS011;56054;50.968;5.816;2023-09-19T07:36:52;14.20;;;1.90;;
68993;SDS011;56054;50.968;5.816;2023-09-19T07:39:59;9.25;;;2.00;;
68993;SDS011;56054;50.968;5.816;2023-09-19T07:43:07;18.65;;;3.28;;
68993;SDS011;56054;50.968;5.816;2023-09-19T07:46:14;10.48;;;1.80;;
68993;SDS011;56054;50.968;5.816;2023-09-19T07:49:21;11.05;;;1.40;;
68993;SDS011;56054;50.968;5.816;2023-09-19T07:52:28;9.23;;;1.50;;
68993;SDS011;56054;50.968;5.816;2023-09-19T07:55:35;13.77;;;1.88;;
68993;SDS011;56054;50.968;5.816;2023-09-19T07:58:42;6.72;;;1.63;;
68993;SDS011;56054;50.968;5.816;2023-09-19T08:01:49;12.15;;;1.77;;
68993;SDS011;56054;50.968;5.816;2023-09-19T08:04:56;11.88;;;2.00;;
68993;SDS011;56054;50.968;5.816;2023-09-19T08:08:03;10.35;;;1.58;;
68993;SDS011;56054;50.968;5.816;2023-09-19T08:11:10;7.65;;;1.50;;
68993;SDS011;56054;50.968;5.816;2023-09-19T08:14:17;14.50;;;1.95;;
68993;SDS011;56054;50.968;5.816;2023-09-19T08:17:24;10.40;;;1.88;;
68993;SDS011;56054;50.968;5.816;2023-09-19T08:20:31;10.55;;;1.83;;
68993;SDS011;56054;50.968;5.816;2023-09-19T08:23:38;7.15;;;1.45;;
68993;SDS011;56054;50.968;5.816;2023-09-19T08:26:45;12.10;;;1.38;;
68993;SDS011;56054;50.968;5.816;2023-09-19T08:29:52;6.22;;;1.50;;
68993;SDS011;56054;50.968;5.816;2023-09-19T08:33:00;6.25;;;1.25;;
68993;SDS011;56054;50.968;5.816;2023-09-19T08:36:08;11.57;;;1.83;;
68993;SDS011;56054;50.968;5.816;2023-09-19T08:39:17;11.77;;;1.45;;
68993;SDS011;56054;50.968;5.816;2023-09-19T08:42:25;9.45;;;1.58;;
68993;SDS011;56054;50.968;5.816;2023-09-19T08:45:32;8.25;;;1.65;;
68993;SDS011;56054;50.968;5.816;2023-09-19T08:48:41;6.20;;;1.55;;
68993;SDS011;56054;50.968;5.816;2023-09-19T08:51:54;12.98;;;1.58;;
68993;SDS011;56054;50.968;5.816;2023-09-19T08:55:12;10.15;;;1.63;;
68993;SDS011;56054;50.968;5.816;2023-09-19T08:58:20;10.15;;;1.80;;
68993;SDS011;56054;50.968;5.816;2023-09-19T09:01:37;12.55;;;1.90;;
68993;SDS011;56054;50.968;5.816;2023-09-19T09:04:45;10.13;;;1.40;;
68993;SDS011;56054;50.968;5.816;2023-09-19T09:07:52;12.27;;;2.08;;
68993;SDS011;56054;50.968;5.816;2023-09-19T09:11:00;9.32;;;1.42;;
68993;SDS011;56054;50.968;5.816;2023-09-19T09:14:07;6.63;;;1.15;;
68993;SDS011;56054;50.968;5.816;2023-09-19T09:17:14;9.88;;;1.30;;
68993;SDS011;56054;50.968;5.816;2023-09-19T09:20:21;8.57;;;1.52;;
68993;SDS011;56054;50.968;5.816;2023-09-19T09:23:35;8.32;;;1.65;;
68993;SDS011;56054;50.968;5.816;2023-09-19T09:26:42;18.13;;;1.88;;
68993;SDS011;56054;50.968;5.816;2023-09-19T09:29:50;9.25;;;1.15;;
68993;SDS011;56054;50.968;5.816;2023-09-19T09:33:16;17.38;;;1.70;;
68993;SDS011;56054;50.968;5.816;2023-09-19T09:36:34;9.57;;;2.03;;
68993;SDS011;56054;50.968;5.816;2023-09-19T09:40:04;13.60;;;2.10;;
68993;SDS011;56054;50.968;5.816;2023-09-19T09:43:24;7.82;;;1.50;;
68993;SDS011;56054;50.968;5.816;2023-09-19T09:46:49;8.93;;;1.73;;
68993;SDS011;56054;50.968;5.816;2023-09-19T09:49:56;9.23;;;1.13;;
68993;SDS011;56054;50.968;5.816;2023-09-19T09:53:03;7.32;;;1.48;;
68993;SDS011;56054;50.968;5.816;2023-09-19T09:56:10;9.95;;;1.80;;
68993;SDS011;56054;50.968;5.816;2023-09-19T09:59:17;8.80;;;1.48;;
68993;SDS011;56054;50.968;5.816;2023-09-19T10:02:28;6.97;;;1.40;;
68993;SDS011;56054;50.968;5.816;2023-09-19T10:05:36;11.40;;;1.60;;
68993;SDS011;56054;50.968;5.816;2023-09-19T10:09:00;9.60;;;1.40;;
68993;SDS011;56054;50.968;5.816;2023-09-19T10:12:16;7.57;;;1.33;;
68993;SDS011;56054;50.968;5.816;2023-09-19T10:15:26;6.07;;;1.85;;
68993;SDS011;56054;50.968;5.816;2023-09-19T10:18:36;11.65;;;1.67;;
68993;SDS011;56054;50.968;5.816;2023-09-19T10:21:43;8.82;;;2.67;;
68993;SDS011;56054;50.968;5.816;2023-09-19T10:24:52;6.60;;;1.38;;
68993;SDS011;56054;50.968;5.816;2023-09-19T10:28:03;7.57;;;1.58;;
68993;SDS011;56054;50.968;5.816;2023-09-19T10:31:13;11.75;;;1.95;;
68993;SDS011;56054;50.968;5.816;2023-09-19T10:34:25;10.38;;;1.48;;
68993;SDS011;56054;50.968;5.816;2023-09-19T10:37:33;13.93;;;1.88;;
68993;SDS011;56054;50.968;5.816;2023-09-19T10:40:42;6.25;;;1.50;;
68993;SDS011;56054;50.968;5.816;2023-09-19T10:43:50;7.40;;;1.20;;
68993;SDS011;56054;50.968;5.816;2023-09-19T10:47:00;6.85;;;1.58;;
68993;SDS011;56054;50.968;5.816;2023-09-19T10:50:08;10.98;;;2.30;;
68993;SDS011;56054;50.968;5.816;2023-09-19T10:53:15;8.70;;;1.60;;
68993;SDS011;56054;50.968;5.816;2023-09-19T10:56:26;9.82;;;1.92;;
68993;SDS011;56054;50.968;5.816;2023-09-19T10:59:36;10.35;;;2.00;;
68993;SDS011;56054;50.968;5.816;2023-09-19T11:02:43;12.38;;;1.60;;
68993;SDS011;56054;50.968;5.816;2023-09-19T11:06:00;9.02;;;1.50;;
68993;SDS011;56054;50.968;5.816;2023-09-19T11:09:10;7.82;;;1.15;;
68993;SDS011;56054;50.968;5.816;2023-09-19T11:16:02;7.55;;;2.13;;
68993;SDS011;56054;50.968;5.816;2023-09-19T11:19:10;9.85;;;1.40;;
68993;SDS011;56054;50.968;5.816;2023-09-19T11:22:17;8.38;;;1.67;;
68993;SDS011;56054;50.968;5.816;2023-09-19T11:28:37;7.07;;;1.20;;
68993;SDS011;56054;50.968;5.816;2023-09-19T11:31:44;7.18;;;1.50;;
68993;SDS011;56054;50.968;5.816;2023-09-19T11:34:51;7.15;;;1.40;;
68993;SDS011;56054;50.968;5.816;2023-09-19T11:37:59;8.18;;;1.20;;
68993;SDS011;56054;50.968;5.816;2023-09-19T11:41:36;8.77;;;1.25;;
68993;SDS011;56054;50.968;5.816;2023-09-19T11:44:45;4.05;;;1.23;;
68993;SDS011;56054;50.968;5.816;2023-09-19T11:47:52;7.00;;;1.30;;
68993;SDS011;56054;50.968;5.816;2023-09-19T11:50:59;4.88;;;1.20;;
68993;SDS011;56054;50.968;5.816;2023-09-19T11:54:10;6.53;;;1.50;;
68993;SDS011;56054;50.968;5.816;2023-09-19T11:57:20;9.32;;;1.42;;
68993;SDS011;56054;50.968;5.816;2023-09-19T12:00:27;9.55;;;1.30;;
68993;SDS011;56054;50.968;5.816;2023-09-19T12:03:34;8.02;;;0.98;;
68993;SDS011;56054;50.968;5.816;2023-09-19T12:06:45;8.18;;;0.95;;
68993;SDS011;56054;50.968;5.816;2023-09-19T12:10:05;5.18;;;1.00;;
68993;SDS011;56054;50.968;5.816;2023-09-19T12:13:15;6.70;;;0.98;;
68993;SDS011;56054;50.968;5.816;2023-09-19T12:16:23;5.95;;;0.98;;
68993;SDS011;56054;50.968;5.816;2023-09-19T12:19:31;7.45;;;1.67;;
68993;SDS011;56054;50.968;5.816;2023-09-19T12:22:42;5.18;;;0.90;;
68993;SDS011;56054;50.968;5.816;2023-09-19T12:25:52;8.27;;;0.95;;
68993;SDS011;56054;50.968;5.816;2023-09-19T12:29:00;6.45;;;1.02;;
68993;SDS011;56054;50.968;5.816;2023-09-19T12:32:07;3.53;;;0.75;;
68993;SDS011;56054;50.968;5.816;2023-09-19T12:35:33;10.50;;;0.98;;
68993;SDS011;56054;50.968;5.816;2023-09-19T12:38:41;13.00;;;1.50;;
68993;SDS011;56054;50.968;5.816;2023-09-19T12:41:54;5.60;;;0.93;;
68993;SDS011;56054;50.968;5.816;2023-09-19T12:45:02;3.78;;;0.85;;
68993;SDS011;56054;50.968;5.816;2023-09-19T12:48:21;3.92;;;0.95;;
68993;SDS011;56054;50.968;5.816;2023-09-19T12:51:34;3.58;;;0.60;;
68993;SDS011;56054;50.968;5.816;2023-09-19T12:54:42;2.63;;;0.80;;
68993;SDS011;56054;50.968;5.816;2023-09-19T13:01:15;2.25;;;0.73;;
68993;SDS011;56054;50.968;5.816;2023-09-19T13:04:23;8.13;;;1.25;;
68993;SDS011;56054;50.968;5.816;2023-09-19T13:07:40;5.68;;;0.73;;
68993;SDS011;56054;50.968;5.816;2023-09-19T13:14:26;7.82;;;1.00;;
68993;SDS011;56054;50.968;5.816;2023-09-19T13:17:44;7.00;;;0.82;;
68993;SDS011;56054;50.968;5.816;2023-09-19T13:21:07;7.80;;;0.77;;
68993;SDS011;56054;50.968;5.816;2023-09-19T13:24:19;7.18;;;0.85;;
68993;SDS011;56054;50.968;5.816;2023-09-19T13:27:30;6.70;;;0.80;;
68993;SDS011;56054;50.968;5.816;2023-09-19T13:30:37;5.35;;;0.68;;
68993;SDS011;56054;50.968;5.816;2023-09-19T13:33:45;2.60;;;0.80;;
68993;SDS011;56054;50.968;5.816;2023-09-19T13:36:54;5.45;;;0.73;;
68993;SDS011;56054;50.968;5.816;2023-09-19T13:40:01;15.60;;;0.70;;
68993;SDS011;56054;50.968;5.816;2023-09-19T13:43:08;2.15;;;0.57;;
68993;SDS011;56054;50.968;5.816;2023-09-19T13:46:15;4.45;;;0.77;;
68993;SDS011;56054;50.968;5.816;2023-09-19T13:49:22;3.03;;;0.80;;
68993;SDS011;56054;50.968;5.816;2023-09-19T13:52:29;6.50;;;0.88;;
68993;SDS011;56054;50.968;5.816;2023-09-19T13:55:36;2.05;;;0.80;;
68993;SDS011;56054;50.968;5.816;2023-09-19T13:58:43;3.47;;;0.82;;
68993;SDS011;56054;50.968;5.816;2023-09-19T14:01:50;2.15;;;0.50;;
68993;SDS011;56054;50.968;5.816;2023-09-19T14:04:57;5.97;;;0.98;;
68993;SDS011;56054;50.968;5.816;2023-09-19T14:08:04;4.15;;;0.70;;
68993;SDS011;56054;50.968;5.816;2023-09-19T14:11:11;2.67;;;0.65;;
68993;SDS011;56054;50.968;5.816;2023-09-19T14:14:19;4.85;;;0.70;;
68993;SDS011;56054;50.968;5.816;2023-09-19T14:17:26;4.72;;;0.95;;
68993;SDS011;56054;50.968;5.816;2023-09-19T14:20:33;3.17;;;0.85;;
68993;SDS011;56054;50.968;5.816;2023-09-19T14:23:44;3.25;;;0.65;;
68993;SDS011;56054;50.968;5.816;2023-09-19T14:26:51;4.53;;;0.82;;
68993;SDS011;56054;50.968;5.816;2023-09-19T14:29:58;3.00;;;0.70;;
68993;SDS011;56054;50.968;5.816;2023-09-19T14:33:05;10.25;;;0.95;;
68993;SDS011;56054;50.968;5.816;2023-09-19T14:36:12;2.42;;;0.50;;
68993;SDS011;56054;50.968;5.816;2023-09-19T14:39:19;2.13;;;0.60;;
68993;SDS011;56054;50.968;5.816;2023-09-19T14:42:26;5.38;;;1.10;;
68993;SDS011;56054;50.968;5.816;2023-09-19T14:45:35;2.50;;;0.80;;
68993;SDS011;56054;50.968;5.816;2023-09-19T14:48:42;2.90;;;0.73;;
68993;SDS011;56054;50.968;5.816;2023-09-19T14:51:49;2.53;;;0.80;;
68993;SDS011;56054;50.968;5.816;2023-09-19T14:54:56;3.80;;;0.95;;
68993;SDS011;56054;50.968;5.816;2023-09-19T14:58:03;1.45;;;0.70;;
68993;SDS011;56054;50.968;5.816;2023-09-19T15:01:11;4.93;;;1.20;;
68993;SDS011;56054;50.968;5.816;2023-09-19T15:04:18;2.15;;;0.68;;
68993;SDS011;56054;50.968;5.816;2023-09-19T15:07:25;4.45;;;1.00;;
68993;SDS011;56054;50.968;5.816;2023-09-19T15:10:32;2.92;;;1.13;;
68993;SDS011;56054;50.968;5.816;2023-09-19T15:13:40;5.45;;;1.00;;
68993;SDS011;56054;50.968;5.816;2023-09-19T15:16:47;6.75;;;1.13;;
68993;SDS011;56054;50.968;5.816;2023-09-19T15:19:54;2.28;;;0.63;;
68993;SDS011;56054;50.968;5.816;2023-09-19T15:23:15;3.60;;;0.85;;
68993;SDS011;56054;50.968;5.816;2023-09-19T15:26:22;3.25;;;0.77;;
68993;SDS011;56054;50.968;5.816;2023-09-19T15:29:29;4.57;;;0.93;;
68993;SDS011;56054;50.968;5.816;2023-09-19T15:32:36;2.83;;;0.75;;
68993;SDS011;56054;50.968;5.816;2023-09-19T15:35:43;5.55;;;0.80;;
68993;SDS011;56054;50.968;5.816;2023-09-19T15:42:07;2.67;;;0.73;;
68993;SDS011;56054;50.968;5.816;2023-09-19T15:45:14;6.03;;;1.65;;
68993;SDS011;56054;50.968;5.816;2023-09-19T15:48:21;2.08;;;0.80;;
68993;SDS011;56054;50.968;5.816;2023-09-19T15:51:28;2.47;;;0.63;;
68993;SDS011;56054;50.968;5.816;2023-09-19T15:54:35;4.40;;;0.75;;
68993;SDS011;56054;50.968;5.816;2023-09-19T15:57:42;6.68;;;1.20;;
68993;SDS011;56054;50.968;5.816;2023-09-19T16:00:49;8.85;;;1.40;;
68993;SDS011;56054;50.968;5.816;2023-09-19T16:03:56;3.95;;;0.90;;
68993;SDS011;56054;50.968;5.816;2023-09-19T16:07:03;5.55;;;0.90;;
68993;SDS011;56054;50.968;5.816;2023-09-19T16:10:10;2.67;;;0.98;;
68993;SDS011;56054;50.968;5.816;2023-09-19T16:13:17;3.90;;;1.08;;
68993;SDS011;56054;50.968;5.816;2023-09-19T16:16:26;5.15;;;0.80;;
68993;SDS011;56054;50.968;5.816;2023-09-19T16:19:33;6.07;;;0.85;;
68993;SDS011;56054;50.968;5.816;2023-09-19T16:22:40;5.63;;;1.10;;
68993;SDS011;56054;50.968;5.816;2023-09-19T16:25:47;2.65;;;0.82;;
68993;SDS011;56054;50.968;5.816;2023-09-19T16:28:55;9.10;;;1.00;;
68993;SDS011;56054;50.968;5.816;2023-09-19T16:32:03;7.07;;;1.10;;
68993;SDS011;56054;50.968;5.816;2023-09-19T16:35:10;4.43;;;1.13;;
68993;SDS011;56054;50.968;5.816;2023-09-19T16:38:17;7.80;;;1.10;;
68993;SDS011;56054;50.968;5.816;2023-09-19T16:41:24;6.03;;;0.98;;
68993;SDS011;56054;50.968;5.816;2023-09-19T16:44:32;7.68;;;1.13;;
68993;SDS011;56054;50.968;5.816;2023-09-19T16:47:39;5.72;;;0.98;;
68993;SDS011;56054;50.968;5.816;2023-09-19T16:50:47;4.75;;;0.90;;
68993;SDS011;56054;50.968;5.816;2023-09-19T16:53:55;4.47;;;0.98;;
68993;SDS011;56054;50.968;5.816;2023-09-19T16:57:02;4.45;;;0.82;;
68993;SDS011;56054;50.968;5.816;2023-09-19T17:00:09;4.22;;;0.93;;
68993;SDS011;56054;50.968;5.816;2023-09-19T17:03:17;4.10;;;1.15;;
68993;SDS011;56054;50.968;5.816;2023-09-19T17:06:24;9.25;;;1.17;;
68993;SDS011;56054;50.968;5.816;2023-09-19T17:09:31;4.35;;;0.80;;
68993;SDS011;56054;50.968;5.816;2023-09-19T17:12:38;3.90;;;1.02;;
68993;SDS011;56054;50.968;5.816;2023-09-19T17:15:45;6.50;;;1.00;;
68993;SDS011;56054;50.968;5.816;2023-09-19T17:18:53;2.78;;;0.93;;
68993;SDS011;56054;50.968;5.816;2023-09-19T17:22:01;6.05;;;1.15;;
68993;SDS011;56054;50.968;5.816;2023-09-19T17:25:08;3.17;;;0.90;;
68993;SDS011;56054;50.968;5.816;2023-09-19T17:28:15;8.20;;;1.42;;
68993;SDS011;56054;50.968;5.816;2023-09-19T17:31:24;6.72;;;1.20;;
68993;SDS011;56054;50.968;5.816;2023-09-19T17:34:32;1.45;;;0.57;;
68993;SDS011;56054;50.968;5.816;2023-09-19T17:37:39;4.50;;;0.98;;
68993;SDS011;56054;50.968;5.816;2023-09-19T17:40:46;4.90;;;1.20;;
68993;SDS011;56054;50.968;5.816;2023-09-19T17:43:54;2.33;;;0.88;;
68993;SDS011;56054;50.968;5.816;2023-09-19T17:47:02;5.93;;;1.10;;
68993;SDS011;56054;50.968;5.816;2023-09-19T17:50:09;5.50;;;1.33;;
68993;SDS011;56054;50.968;5.816;2023-09-19T17:53:16;8.05;;;1.02;;
68993;SDS011;56054;50.968;5.816;2023-09-19T17:56:23;3.75;;;0.90;;
68993;SDS011;56054;50.968;5.816;2023-09-19T17:59:30;3.88;;;1.17;;
68993;SDS011;56054;50.968;5.816;2023-09-19T18:02:37;2.90;;;0.85;;
68993;SDS011;56054;50.968;5.816;2023-09-19T18:05:44;5.70;;;1.13;;
68993;SDS011;56054;50.968;5.816;2023-09-19T18:08:51;6.15;;;1.48;;
68993;SDS011;56054;50.968;5.816;2023-09-19T18:11:58;3.35;;;1.08;;
68993;SDS011;56054;50.968;5.816;2023-09-19T18:15:05;6.22;;;1.10;;
68993;SDS011;56054;50.968;5.816;2023-09-19T18:18:12;4.15;;;1.10;;
68993;SDS011;56054;50.968;5.816;2023-09-19T18:21:19;4.03;;;0.90;;
68993;SDS011;56054;50.968;5.816;2023-09-19T18:24:27;5.38;;;0.90;;
68993;SDS011;56054;50.968;5.816;2023-09-19T18:27:33;3.97;;;0.80;;
68993;SDS011;56054;50.968;5.816;2023-09-19T18:30:40;3.42;;;1.00;;
68993;SDS011;56054;50.968;5.816;2023-09-19T18:33:47;3.42;;;0.90;;
68993;SDS011;56054;50.968;5.816;2023-09-19T18:36:54;6.32;;;1.30;;
68993;SDS011;56054;50.968;5.816;2023-09-19T18:40:01;4.53;;;1.00;;
68993;SDS011;56054;50.968;5.816;2023-09-19T18:43:08;4.57;;;0.82;;
68993;SDS011;56054;50.968;5.816;2023-09-19T18:46:16;8.25;;;1.20;;
68993;SDS011;56054;50.968;5.816;2023-09-19T18:49:23;5.00;;;1.17;;
68993;SDS011;56054;50.968;5.816;2023-09-19T18:52:30;5.10;;;0.85;;
68993;SDS011;56054;50.968;5.816;2023-09-19T18:55:37;5.47;;;1.08;;
68993;SDS011;56054;50.968;5.816;2023-09-19T18:58:44;3.80;;;0.93;;
68993;SDS011;56054;50.968;5.816;2023-09-19T19:01:58;5.90;;;1.20;;
68993;SDS011;56054;50.968;5.816;2023-09-19T19:05:06;4.03;;;1.15;;
68993;SDS011;56054;50.968;5.816;2023-09-19T19:08:15;3.40;;;1.30;;
68993;SDS011;56054;50.968;5.816;2023-09-19T19:11:21;6.10;;;0.95;;
68993;SDS011;56054;50.968;5.816;2023-09-19T19:14:28;4.63;;;0.93;;
68993;SDS011;56054;50.968;5.816;2023-09-19T19:17:35;4.65;;;1.13;;
68993;SDS011;56054;50.968;5.816;2023-09-19T19:20:42;6.40;;;1.30;;
68993;SDS011;56054;50.968;5.816;2023-09-19T19:23:50;3.58;;;1.15;;